sensor_id;sensor_type;location;lat;lon;timestamp;P1;durP1;ratioP1;P2;durP2;ratioP2
58972;SDS011;44750;52.040;7.472;2022-07-23T00:04:22;8.77;;;5.03;;
58972;SDS011;44750;52.040;7.472;2022-07-23T00:09:22;8.93;;;4.95;;
58972;SDS011;44750;52.040;7.472;2022-07-23T00:14:22;8.40;;;4.50;;
58972;SDS011;44750;52.040;7.472;2022-07-23T00:19:25;10.87;;;4.90;;
58972;SDS011;44750;52.040;7.472;2022-07-23T00:24:25;11.43;;;5.63;;
58972;SDS011;44750;52.040;7.472;2022-07-23T00:29:26;10.90;;;5.47;;
58972;SDS011;44750;52.040;7.472;2022-07-23T00:34:26;11.00;;;6.00;;
58972;SDS011;44750;52.040;7.472;2022-07-23T00:39:26;11.97;;;6.90;;
58972;SDS011;44750;52.040;7.472;2022-07-23T00:44:27;11.57;;;6.88;;
58972;SDS011;44750;52.040;7.472;2022-07-23T00:49:28;14.35;;;7.47;;
58972;SDS011;44750;52.040;7.472;2022-07-23T00:54:31;13.00;;;7.35;;
58972;SDS011;44750;52.040;7.472;2022-07-23T00:59:34;11.18;;;7.10;;
58972;SDS011;44750;52.040;7.472;2022-07-23T01:04:34;15.35;;;7.63;;
58972;SDS011;44750;52.040;7.472;2022-07-23T01:09:34;11.60;;;6.80;;
58972;SDS011;44750;52.040;7.472;2022-07-23T01:14:36;13.80;;;7.80;;
58972;SDS011;44750;52.040;7.472;2022-07-23T01:19:36;11.18;;;7.45;;
58972;SDS011;44750;52.040;7.472;2022-07-23T01:24:36;12.60;;;7.53;;
58972;SDS011;44750;52.040;7.472;2022-07-23T01:29:36;16.60;;;7.57;;
58972;SDS011;44750;52.040;7.472;2022-07-23T01:34:37;11.05;;;7.78;;
58972;SDS011;44750;52.040;7.472;2022-07-23T01:39:37;13.25;;;7.57;;
58972;SDS011;44750;52.040;7.472;2022-07-23T01:44:38;10.07;;;7.85;;
58972;SDS011;44750;52.040;7.472;2022-07-23T01:49:38;14.63;;;7.68;;
58972;SDS011;44750;52.040;7.472;2022-07-23T01:54:38;11.43;;;7.43;;
58972;SDS011;44750;52.040;7.472;2022-07-23T01:59:39;12.38;;;7.15;;
58972;SDS011;44750;52.040;7.472;2022-07-23T02:04:39;12.30;;;7.65;;
58972;SDS011;44750;52.040;7.472;2022-07-23T02:09:39;12.55;;;8.25;;
58972;SDS011;44750;52.040;7.472;2022-07-23T02:14:43;9.40;;;7.40;;
58972;SDS011;44750;52.040;7.472;2022-07-23T02:19:43;12.25;;;8.10;;
58972;SDS011;44750;52.040;7.472;2022-07-23T02:24:43;15.35;;;7.90;;
58972;SDS011;44750;52.040;7.472;2022-07-23T02:29:44;12.63;;;7.68;;
58972;SDS011;44750;52.040;7.472;2022-07-23T02:34:44;11.18;;;7.95;;
58972;SDS011;44750;52.040;7.472;2022-07-23T02:39:44;15.02;;;10.10;;
58972;SDS011;44750;52.040;7.472;2022-07-23T02:44:47;15.02;;;10.73;;
58972;SDS011;44750;52.040;7.472;2022-07-23T02:49:49;14.48;;;10.25;;
58972;SDS011;44750;52.040;7.472;2022-07-23T02:54:49;18.83;;;9.32;;
58972;SDS011;44750;52.040;7.472;2022-07-23T02:59:49;16.73;;;9.45;;
58972;SDS011;44750;52.040;7.472;2022-07-23T03:04:52;12.32;;;8.70;;
58972;SDS011;44750;52.040;7.472;2022-07-23T03:09:52;13.48;;;9.55;;
58972;SDS011;44750;52.040;7.472;2022-07-23T03:14:53;14.47;;;9.67;;
58972;SDS011;44750;52.040;7.472;2022-07-23T03:19:53;19.48;;;8.98;;
58972;SDS011;44750;52.040;7.472;2022-07-23T03:24:53;17.95;;;9.40;;
58972;SDS011;44750;52.040;7.472;2022-07-23T03:29:56;15.33;;;9.53;;
58972;SDS011;44750;52.040;7.472;2022-07-23T03:34:58;14.13;;;9.18;;
58972;SDS011;44750;52.040;7.472;2022-07-23T03:39:58;15.75;;;9.55;;
58972;SDS011;44750;52.040;7.472;2022-07-23T03:44:59;12.23;;;9.23;;
58972;SDS011;44750;52.040;7.472;2022-07-23T03:49:59;13.50;;;8.27;;
58972;SDS011;44750;52.040;7.472;2022-07-23T03:54:59;12.65;;;8.40;;
58972;SDS011;44750;52.040;7.472;2022-07-23T03:59:59;14.60;;;9.13;;
58972;SDS011;44750;52.040;7.472;2022-07-23T04:05:00;13.75;;;9.20;;
58972;SDS011;44750;52.040;7.472;2022-07-23T04:10:00;14.32;;;10.02;;
58972;SDS011;44750;52.040;7.472;2022-07-23T04:15:00;15.73;;;10.40;;
58972;SDS011;44750;52.040;7.472;2022-07-23T04:20:01;19.10;;;10.80;;
58972;SDS011;44750;52.040;7.472;2022-07-23T04:25:02;17.17;;;10.43;;
58972;SDS011;44750;52.040;7.472;2022-07-23T04:30:02;17.42;;;10.07;;
58972;SDS011;44750;52.040;7.472;2022-07-23T04:35:06;14.15;;;9.52;;
58972;SDS011;44750;52.040;7.472;2022-07-23T04:40:06;12.77;;;9.80;;
58972;SDS011;44750;52.040;7.472;2022-07-23T04:45:07;16.33;;;9.65;;
58972;SDS011;44750;52.040;7.472;2022-07-23T04:50:08;17.30;;;10.75;;
58972;SDS011;44750;52.040;7.472;2022-07-23T04:55:08;14.27;;;9.43;;
58972;SDS011;44750;52.040;7.472;2022-07-23T05:00:09;14.85;;;9.40;;
58972;SDS011;44750;52.040;7.472;2022-07-23T05:05:09;12.93;;;9.48;;
58972;SDS011;44750;52.040;7.472;2022-07-23T05:10:10;13.15;;;8.98;;
58972;SDS011;44750;52.040;7.472;2022-07-23T05:15:10;14.60;;;9.25;;
58972;SDS011;44750;52.040;7.472;2022-07-23T05:20:10;14.75;;;9.15;;
58972;SDS011;44750;52.040;7.472;2022-07-23T05:25:11;17.88;;;8.40;;
58972;SDS011;44750;52.040;7.472;2022-07-23T05:30:11;16.85;;;8.98;;
58972;SDS011;44750;52.040;7.472;2022-07-23T05:35:12;12.40;;;8.68;;
58972;SDS011;44750;52.040;7.472;2022-07-23T05:40:12;13.77;;;8.83;;
58972;SDS011;44750;52.040;7.472;2022-07-23T05:45:13;16.95;;;8.70;;
58972;SDS011;44750;52.040;7.472;2022-07-23T05:50:13;12.63;;;8.43;;
58972;SDS011;44750;52.040;7.472;2022-07-23T05:55:15;13.30;;;7.82;;
58972;SDS011;44750;52.040;7.472;2022-07-23T06:00:15;14.23;;;7.45;;
58972;SDS011;44750;52.040;7.472;2022-07-23T06:05:15;9.75;;;5.70;;
58972;SDS011;44750;52.040;7.472;2022-07-23T06:10:16;13.25;;;5.75;;
58972;SDS011;44750;52.040;7.472;2022-07-23T06:15:16;11.10;;;6.28;;
58972;SDS011;44750;52.040;7.472;2022-07-23T06:20:16;10.75;;;6.50;;
58972;SDS011;44750;52.040;7.472;2022-07-23T06:25:17;12.40;;;6.07;;
58972;SDS011;44750;52.040;7.472;2022-07-23T06:30:17;9.43;;;6.45;;
58972;SDS011;44750;52.040;7.472;2022-07-23T06:35:17;12.93;;;6.67;;
58972;SDS011;44750;52.040;7.472;2022-07-23T06:40:17;11.00;;;6.32;;
58972;SDS011;44750;52.040;7.472;2022-07-23T06:45:18;10.55;;;6.32;;
58972;SDS011;44750;52.040;7.472;2022-07-23T06:50:18;8.38;;;5.82;;
58972;SDS011;44750;52.040;7.472;2022-07-23T06:55:18;8.83;;;4.47;;
58972;SDS011;44750;52.040;7.472;2022-07-23T07:00:19;6.72;;;4.90;;
58972;SDS011;44750;52.040;7.472;2022-07-23T07:05:19;9.07;;;4.53;;
58972;SDS011;44750;52.040;7.472;2022-07-23T07:10:19;9.95;;;4.80;;
58972;SDS011;44750;52.040;7.472;2022-07-23T07:15:20;11.27;;;4.70;;
58972;SDS011;44750;52.040;7.472;2022-07-23T07:20:20;7.78;;;4.57;;
58972;SDS011;44750;52.040;7.472;2022-07-23T07:25:20;6.88;;;4.60;;
58972;SDS011;44750;52.040;7.472;2022-07-23T07:30:20;6.23;;;4.50;;
58972;SDS011;44750;52.040;7.472;2022-07-23T07:35:21;9.25;;;5.10;;
58972;SDS011;44750;52.040;7.472;2022-07-23T07:40:23;8.05;;;4.10;;
58972;SDS011;44750;52.040;7.472;2022-07-23T07:45:23;6.72;;;4.10;;
58972;SDS011;44750;52.040;7.472;2022-07-23T07:50:24;5.70;;;3.85;;
58972;SDS011;44750;52.040;7.472;2022-07-23T07:55:25;5.57;;;3.30;;
58972;SDS011;44750;52.040;7.472;2022-07-23T08:00:25;6.43;;;3.50;;
58972;SDS011;44750;52.040;7.472;2022-07-23T08:05:26;4.87;;;3.00;;
58972;SDS011;44750;52.040;7.472;2022-07-23T08:10:27;4.03;;;2.28;;
58972;SDS011;44750;52.040;7.472;2022-07-23T08:15:28;6.63;;;2.80;;
58972;SDS011;44750;52.040;7.472;2022-07-23T08:20:29;7.22;;;2.78;;
58972;SDS011;44750;52.040;7.472;2022-07-23T08:25:33;3.93;;;2.47;;
58972;SDS011;44750;52.040;7.472;2022-07-23T08:30:35;5.10;;;2.35;;
58972;SDS011;44750;52.040;7.472;2022-07-23T08:35:37;5.03;;;2.40;;
58972;SDS011;44750;52.040;7.472;2022-07-23T08:40:40;3.63;;;2.33;;
58972;SDS011;44750;52.040;7.472;2022-07-23T08:45:45;4.63;;;2.22;;
58972;SDS011;44750;52.040;7.472;2022-07-23T08:50:50;3.58;;;1.90;;
58972;SDS011;44750;52.040;7.472;2022-07-23T08:55:54;2.90;;;1.80;;
58972;SDS011;44750;52.040;7.472;2022-07-23T09:00:55;2.88;;;1.60;;
58972;SDS011;44750;52.040;7.472;2022-07-23T09:05:57;4.35;;;1.60;;
58972;SDS011;44750;52.040;7.472;2022-07-23T09:10:59;7.03;;;1.80;;
58972;SDS011;44750;52.040;7.472;2022-07-23T09:16:43;3.73;;;1.97;;
58972;SDS011;44750;52.040;7.472;2022-07-23T09:21:33;3.53;;;1.65;;
58972;SDS011;44750;52.040;7.472;2022-07-23T09:26:38;3.78;;;1.13;;
58972;SDS011;44750;52.040;7.472;2022-07-23T09:31:46;3.63;;;1.30;;
58972;SDS011;44750;52.040;7.472;2022-07-23T09:36:47;2.63;;;1.20;;
58972;SDS011;44750;52.040;7.472;2022-07-23T09:41:48;4.57;;;1.40;;
58972;SDS011;44750;52.040;7.472;2022-07-23T09:46:49;3.55;;;1.20;;
58972;SDS011;44750;52.040;7.472;2022-07-23T09:51:54;4.55;;;1.70;;
58972;SDS011;44750;52.040;7.472;2022-07-23T09:56:56;3.10;;;1.42;;
58972;SDS011;44750;52.040;7.472;2022-07-23T10:01:58;3.50;;;1.58;;
58972;SDS011;44750;52.040;7.472;2022-07-23T10:06:59;4.43;;;1.45;;
58972;SDS011;44750;52.040;7.472;2022-07-23T10:12:04;3.58;;;1.60;;
58972;SDS011;44750;52.040;7.472;2022-07-23T10:17:09;3.00;;;1.00;;
58972;SDS011;44750;52.040;7.472;2022-07-23T10:22:10;2.17;;;1.30;;
58972;SDS011;44750;52.040;7.472;2022-07-23T10:37:42;2.47;;;0.90;;
58972;SDS011;44750;52.040;7.472;2022-07-23T10:42:46;4.85;;;1.20;;
58972;SDS011;44750;52.040;7.472;2022-07-23T10:47:47;2.20;;;1.20;;
58972;SDS011;44750;52.040;7.472;2022-07-23T10:58:08;2.00;;;1.17;;
58972;SDS011;44750;52.040;7.472;2022-07-23T11:03:28;5.32;;;1.42;;
58972;SDS011;44750;52.040;7.472;2022-07-23T11:08:32;3.22;;;1.30;;
58972;SDS011;44750;52.040;7.472;2022-07-23T11:13:37;2.70;;;1.20;;
58972;SDS011;44750;52.040;7.472;2022-07-23T11:34:30;3.35;;;1.00;;
58972;SDS011;44750;52.040;7.472;2022-07-23T11:39:39;4.47;;;1.45;;
58972;SDS011;44750;52.040;7.472;2022-07-23T11:44:42;1.90;;;1.33;;
58972;SDS011;44750;52.040;7.472;2022-07-23T11:49:53;3.00;;;1.10;;
58972;SDS011;44750;52.040;7.472;2022-07-23T12:05:06;2.33;;;1.10;;
58972;SDS011;44750;52.040;7.472;2022-07-23T12:15:27;2.42;;;1.08;;
58972;SDS011;44750;52.040;7.472;2022-07-23T12:20:31;1.58;;;1.00;;
58972;SDS011;44750;52.040;7.472;2022-07-23T12:25:37;1.90;;;1.10;;
58972;SDS011;44750;52.040;7.472;2022-07-23T12:35:45;3.42;;;1.10;;
58972;SDS011;44750;52.040;7.472;2022-07-23T12:46:06;4.25;;;1.15;;
58972;SDS011;44750;52.040;7.472;2022-07-23T13:06:20;3.42;;;1.20;;
58972;SDS011;44750;52.040;7.472;2022-07-23T13:11:20;3.30;;;1.50;;
58972;SDS011;44750;52.040;7.472;2022-07-23T13:16:20;2.70;;;1.40;;
58972;SDS011;44750;52.040;7.472;2022-07-23T13:21:20;3.38;;;1.30;;
58972;SDS011;44750;52.040;7.472;2022-07-23T13:26:21;1.40;;;1.30;;
58972;SDS011;44750;52.040;7.472;2022-07-23T13:31:21;2.53;;;1.40;;
58972;SDS011;44750;52.040;7.472;2022-07-23T13:36:21;2.35;;;1.40;;
58972;SDS011;44750;52.040;7.472;2022-07-23T13:41:22;3.50;;;1.50;;
58972;SDS011;44750;52.040;7.472;2022-07-23T13:46:22;3.20;;;1.70;;
58972;SDS011;44750;52.040;7.472;2022-07-23T13:51:22;3.40;;;1.63;;
58972;SDS011;44750;52.040;7.472;2022-07-23T13:56:22;4.35;;;1.73;;
58972;SDS011;44750;52.040;7.472;2022-07-23T14:01:22;2.30;;;1.30;;
58972;SDS011;44750;52.040;7.472;2022-07-23T14:06:23;2.35;;;1.77;;
58972;SDS011;44750;52.040;7.472;2022-07-23T14:11:23;2.78;;;1.83;;
58972;SDS011;44750;52.040;7.472;2022-07-23T14:16:23;3.72;;;1.80;;
58972;SDS011;44750;52.040;7.472;2022-07-23T14:21:24;3.65;;;1.73;;
58972;SDS011;44750;52.040;7.472;2022-07-23T14:26:24;2.70;;;1.40;;
58972;SDS011;44750;52.040;7.472;2022-07-23T14:31:24;3.55;;;1.85;;
58972;SDS011;44750;52.040;7.472;2022-07-23T14:36:25;3.17;;;1.60;;
58972;SDS011;44750;52.040;7.472;2022-07-23T14:41:25;5.15;;;1.80;;
58972;SDS011;44750;52.040;7.472;2022-07-23T14:46:25;3.95;;;1.70;;
58972;SDS011;44750;52.040;7.472;2022-07-23T14:51:27;6.53;;;1.80;;
58972;SDS011;44750;52.040;7.472;2022-07-23T14:56:27;2.83;;;1.70;;
58972;SDS011;44750;52.040;7.472;2022-07-23T15:01:27;7.75;;;1.70;;
58972;SDS011;44750;52.040;7.472;2022-07-23T15:06:27;4.20;;;1.70;;
58972;SDS011;44750;52.040;7.472;2022-07-23T15:11:28;4.10;;;1.73;;
58972;SDS011;44750;52.040;7.472;2022-07-23T15:16:28;3.30;;;1.73;;
58972;SDS011;44750;52.040;7.472;2022-07-23T15:21:28;3.37;;;2.03;;
58972;SDS011;44750;52.040;7.472;2022-07-23T15:26:29;3.08;;;1.85;;
58972;SDS011;44750;52.040;7.472;2022-07-23T15:31:30;2.03;;;1.63;;
58972;SDS011;44750;52.040;7.472;2022-07-23T15:36:30;4.30;;;1.70;;
58972;SDS011;44750;52.040;7.472;2022-07-23T15:41:31;7.90;;;2.53;;
58972;SDS011;44750;52.040;7.472;2022-07-23T15:46:31;3.00;;;1.63;;
58972;SDS011;44750;52.040;7.472;2022-07-23T15:51:31;3.38;;;1.60;;
58972;SDS011;44750;52.040;7.472;2022-07-23T15:56:33;3.42;;;1.70;;
58972;SDS011;44750;52.040;7.472;2022-07-23T16:01:33;4.43;;;1.73;;
58972;SDS011;44750;52.040;7.472;2022-07-23T16:06:34;4.10;;;1.50;;
58972;SDS011;44750;52.040;7.472;2022-07-23T16:11:35;3.92;;;2.00;;
58972;SDS011;44750;52.040;7.472;2022-07-23T16:16:35;5.50;;;1.75;;
58972;SDS011;44750;52.040;7.472;2022-07-23T16:21:35;2.95;;;1.83;;
58972;SDS011;44750;52.040;7.472;2022-07-23T16:26:36;4.70;;;1.75;;
58972;SDS011;44750;52.040;7.472;2022-07-23T16:31:36;3.58;;;1.98;;
58972;SDS011;44750;52.040;7.472;2022-07-23T16:36:37;5.05;;;2.20;;
58972;SDS011;44750;52.040;7.472;2022-07-23T16:41:37;4.18;;;1.50;;
58972;SDS011;44750;52.040;7.472;2022-07-23T16:46:37;2.38;;;1.45;;
58972;SDS011;44750;52.040;7.472;2022-07-23T16:51:38;3.03;;;1.60;;
58972;SDS011;44750;52.040;7.472;2022-07-23T16:56:39;4.03;;;1.98;;
58972;SDS011;44750;52.040;7.472;2022-07-23T17:01:39;2.20;;;1.75;;
58972;SDS011;44750;52.040;7.472;2022-07-23T17:06:40;2.58;;;1.60;;
58972;SDS011;44750;52.040;7.472;2022-07-23T17:11:40;3.10;;;1.60;;
58972;SDS011;44750;52.040;7.472;2022-07-23T17:16:40;2.30;;;1.90;;
58972;SDS011;44750;52.040;7.472;2022-07-23T17:21:41;4.13;;;1.95;;
58972;SDS011;44750;52.040;7.472;2022-07-23T17:26:41;4.35;;;1.80;;
58972;SDS011;44750;52.040;7.472;2022-07-23T17:31:41;3.58;;;1.85;;
58972;SDS011;44750;52.040;7.472;2022-07-23T17:36:42;2.70;;;1.90;;
58972;SDS011;44750;52.040;7.472;2022-07-23T17:41:42;3.27;;;1.90;;
58972;SDS011;44750;52.040;7.472;2022-07-23T17:46:42;2.70;;;1.88;;
58972;SDS011;44750;52.040;7.472;2022-07-23T17:51:43;4.32;;;1.92;;
58972;SDS011;44750;52.040;7.472;2022-07-23T17:56:45;2.93;;;1.60;;
58972;SDS011;44750;52.040;7.472;2022-07-23T18:01:45;4.28;;;1.88;;
58972;SDS011;44750;52.040;7.472;2022-07-23T18:06:46;4.28;;;1.90;;
58972;SDS011;44750;52.040;7.472;2022-07-23T18:11:46;3.27;;;1.90;;
58972;SDS011;44750;52.040;7.472;2022-07-23T18:16:47;2.60;;;1.63;;
58972;SDS011;44750;52.040;7.472;2022-07-23T18:21:47;2.67;;;1.80;;
58972;SDS011;44750;52.040;7.472;2022-07-23T18:26:47;3.05;;;2.10;;
58972;SDS011;44750;52.040;7.472;2022-07-23T18:31:47;1.80;;;1.60;;
58972;SDS011;44750;52.040;7.472;2022-07-23T18:36:48;2.40;;;1.80;;
58972;SDS011;44750;52.040;7.472;2022-07-23T18:41:49;4.88;;;2.30;;
58972;SDS011;44750;52.040;7.472;2022-07-23T18:46:49;2.92;;;2.20;;
58972;SDS011;44750;52.040;7.472;2022-07-23T18:51:49;3.03;;;2.17;;
58972;SDS011;44750;52.040;7.472;2022-07-23T18:56:50;4.22;;;2.20;;
58972;SDS011;44750;52.040;7.472;2022-07-23T19:01:50;6.45;;;2.10;;
58972;SDS011;44750;52.040;7.472;2022-07-23T19:06:50;3.15;;;2.00;;
58972;SDS011;44750;52.040;7.472;2022-07-23T19:11:51;6.10;;;3.63;;
58972;SDS011;44750;52.040;7.472;2022-07-23T19:16:51;4.35;;;2.13;;
58972;SDS011;44750;52.040;7.472;2022-07-23T19:21:51;3.65;;;1.95;;
58972;SDS011;44750;52.040;7.472;2022-07-23T19:26:51;2.90;;;1.83;;
58972;SDS011;44750;52.040;7.472;2022-07-23T19:31:52;1.98;;;1.60;;
58972;SDS011;44750;52.040;7.472;2022-07-23T19:36:52;3.13;;;2.38;;
58972;SDS011;44750;52.040;7.472;2022-07-23T19:41:52;2.83;;;2.07;;
58972;SDS011;44750;52.040;7.472;2022-07-23T19:46:53;4.80;;;2.72;;
58972;SDS011;44750;52.040;7.472;2022-07-23T19:51:53;2.00;;;1.70;;
58972;SDS011;44750;52.040;7.472;2022-07-23T19:56:53;3.93;;;2.03;;
58972;SDS011;44750;52.040;7.472;2022-07-23T20:01:54;4.32;;;2.20;;
58972;SDS011;44750;52.040;7.472;2022-07-23T20:06:54;4.78;;;2.60;;
58972;SDS011;44750;52.040;7.472;2022-07-23T20:11:54;8.13;;;5.35;;
58972;SDS011;44750;52.040;7.472;2022-07-23T20:16:55;7.25;;;4.97;;
58972;SDS011;44750;52.040;7.472;2022-07-23T20:21:55;11.90;;;7.70;;
58972;SDS011;44750;52.040;7.472;2022-07-23T20:26:55;14.15;;;9.15;;
58972;SDS011;44750;52.040;7.472;2022-07-23T20:31:56;4.22;;;3.03;;
58972;SDS011;44750;52.040;7.472;2022-07-23T20:36:56;5.37;;;4.47;;
58972;SDS011;44750;52.040;7.472;2022-07-23T20:41:57;22.63;;;15.68;;
58972;SDS011;44750;52.040;7.472;2022-07-23T20:46:57;6.77;;;3.60;;
58972;SDS011;44750;52.040;7.472;2022-07-23T20:51:57;7.93;;;5.00;;
58972;SDS011;44750;52.040;7.472;2022-07-23T20:56:58;6.15;;;4.35;;
58972;SDS011;44750;52.040;7.472;2022-07-23T21:01:58;4.90;;;4.07;;
58972;SDS011;44750;52.040;7.472;2022-07-23T21:06:58;6.10;;;4.03;;
58972;SDS011;44750;52.040;7.472;2022-07-23T21:11:59;11.65;;;6.03;;
58972;SDS011;44750;52.040;7.472;2022-07-23T21:16:59;4.57;;;2.95;;
58972;SDS011;44750;52.040;7.472;2022-07-23T21:21:59;3.00;;;2.22;;
58972;SDS011;44750;52.040;7.472;2022-07-23T21:27:05;3.67;;;2.85;;
58972;SDS011;44750;52.040;7.472;2022-07-23T21:32:06;3.72;;;2.30;;
58972;SDS011;44750;52.040;7.472;2022-07-23T21:37:06;4.50;;;2.20;;
58972;SDS011;44750;52.040;7.472;2022-07-23T21:42:06;4.55;;;2.60;;
58972;SDS011;44750;52.040;7.472;2022-07-23T21:47:07;4.38;;;2.38;;
58972;SDS011;44750;52.040;7.472;2022-07-23T21:52:07;6.75;;;2.28;;
58972;SDS011;44750;52.040;7.472;2022-07-23T21:57:07;2.90;;;2.22;;
58972;SDS011;44750;52.040;7.472;2022-07-23T22:02:07;3.33;;;2.47;;
58972;SDS011;44750;52.040;7.472;2022-07-23T22:07:08;2.75;;;2.40;;
58972;SDS011;44750;52.040;7.472;2022-07-23T22:12:08;3.22;;;2.35;;
58972;SDS011;44750;52.040;7.472;2022-07-23T22:17:14;2.85;;;2.25;;
58972;SDS011;44750;52.040;7.472;2022-07-23T22:22:14;2.85;;;2.50;;
58972;SDS011;44750;52.040;7.472;2022-07-23T22:27:17;4.00;;;2.38;;
58972;SDS011;44750;52.040;7.472;2022-07-23T22:32:17;4.03;;;2.40;;
58972;SDS011;44750;52.040;7.472;2022-07-23T22:37:17;3.95;;;2.13;;
58972;SDS011;44750;52.040;7.472;2022-07-23T22:42:18;3.03;;;2.40;;
58972;SDS011;44750;52.040;7.472;2022-07-23T22:47:18;4.93;;;2.08;;
58972;SDS011;44750;52.040;7.472;2022-07-23T22:52:18;3.97;;;2.40;;
58972;SDS011;44750;52.040;7.472;2022-07-23T22:57:18;3.60;;;1.88;;
58972;SDS011;44750;52.040;7.472;2022-07-23T23:02:19;2.70;;;2.08;;
58972;SDS011;44750;52.040;7.472;2022-07-23T23:07:19;3.13;;;2.25;;
58972;SDS011;44750;52.040;7.472;2022-07-23T23:12:19;4.78;;;2.10;;
58972;SDS011;44750;52.040;7.472;2022-07-23T23:17:19;2.85;;;2.13;;
58972;SDS011;44750;52.040;7.472;2022-07-23T23:22:20;2.38;;;1.90;;
58972;SDS011;44750;52.040;7.472;2022-07-23T23:27:20;3.22;;;2.30;;
58972;SDS011;44750;52.040;7.472;2022-07-23T23:32:20;3.13;;;2.15;;
58972;SDS011;44750;52.040;7.472;2022-07-23T23:37:20;4.32;;;2.10;;
58972;SDS011;44750;52.040;7.472;2022-07-23T23:42:20;4.18;;;2.30;;
58972;SDS011;44750;52.040;7.472;2022-07-23T23:47:21;5.47;;;2.47;;
58972;SDS011;44750;52.040;7.472;2022-07-23T23:52:21;4.47;;;2.42;;
58972;SDS011;44750;52.040;7.472;2022-07-23T23:57:21;6.70;;;2.50;;
